Time,TemperatureF,DewpointF,PressureIn,WindDirection,WindDirectionDegrees,WindSpeedMPH,WindSpeedGustMPH,Humidity,HourlyPrecipIn,Conditions,Clouds,dailyrainin,SoftwareType,DateUTC
2013-05-27 00:00:00,59.0,-99.9,-100.00,ESE,117,9.0,15.0,-999,0.01,,,-99.99,,2013-05-27 05:00:00,
2013-05-27 00:32:00,59.0,-99.9,-100.00,ESE,117,9.0,15.0,-999,0.01,,,-99.99,,2013-05-27 05:32:00,
2013-05-27 00:42:00,59.0,-99.9,-100.00,ESE,117,9.0,15.0,-999,0.01,,,-99.99,,2013-05-27 05:42:00,
2013-05-27 00:52:00,59.0,-99.9,-100.00,ESE,117,9.0,15.0,-999,0.01,,,-99.99,,2013-05-27 05:52:00,
2013-05-27 01:00:00,60.0,-99.9,-100.00,ESE,119,5.0,13.0,-999,0.00,,,0.91,,2013-05-27 06:00:00,
2013-05-27 01:32:00,60.0,-99.9,-100.00,ESE,119,5.0,13.0,-999,0.00,,,0.91,,2013-05-27 06:32:00,
2013-05-27 01:42:00,60.0,-99.9,-100.00,ESE,119,5.0,13.0,-999,0.00,,,0.91,,2013-05-27 06:42:00,
2013-05-27 01:52:00,60.0,-99.9,-100.00,ESE,119,5.0,13.0,-999,0.00,,,0.91,,2013-05-27 06:52:00,
2013-05-27 02:00:00,60.0,-99.9,-100.00,SE,138,5.0,10.0,-999,0.00,,,0.91,,2013-05-27 07:00:00,
2013-05-27 02:32:00,60.0,-99.9,-100.00,SE,138,5.0,10.0,-999,0.00,,,0.91,,2013-05-27 07:32:00,
2013-05-27 02:42:00,60.0,-99.9,-100.00,SE,138,5.0,10.0,-999,0.00,,,0.91,,2013-05-27 07:42:00,
2013-05-27 02:53:00,60.0,-99.9,-100.00,SE,138,5.0,10.0,-999,0.00,,,0.91,,2013-05-27 07:53:00,
2013-05-27 03:00:00,60.0,-99.9,-100.00,SE,124,8.0,13.0,-999,0.00,,,0.91,,2013-05-27 08:00:00,
2013-05-27 03:33:00,60.0,-99.9,-100.00,SE,124,8.0,13.0,-999,0.00,,,0.91,,2013-05-27 08:33:00,
2013-05-27 03:42:00,60.0,-99.9,-100.00,SE,124,8.0,13.0,-999,0.00,,,0.91,,2013-05-27 08:42:00,
2013-05-27 03:52:00,60.0,-99.9,-100.00,SE,124,8.0,13.0,-999,0.00,,,0.91,,2013-05-27 08:52:00,
2013-05-27 04:00:00,60.0,-99.9,-100.00,ESE,118,4.0,10.0,-999,0.00,,,0.91,,2013-05-27 09:00:00,
2013-05-27 04:33:00,60.0,-99.9,-100.00,ESE,118,4.0,10.0,-999,0.00,,,0.91,,2013-05-27 09:33:00,
2013-05-27 04:43:00,60.0,-99.9,-100.00,ESE,118,4.0,10.0,-999,0.00,,,0.91,,2013-05-27 09:43:00,
2013-05-27 04:53:00,60.0,-99.9,-100.00,ESE,118,4.0,10.0,-999,0.00,,,0.91,,2013-05-27 09:53:00,
2013-05-27 05:00:00,60.0,-99.9,-100.00,SE,131,6.0,11.0,-999,0.00,,,0.91,,2013-05-27 10:00:00,
2013-05-27 05:32:00,60.0,-99.9,-100.00,SE,131,6.0,11.0,-999,0.00,,,0.91,,2013-05-27 10:32:00,
2013-05-27 05:42:00,60.0,-99.9,-100.00,SE,131,6.0,11.0,-999,0.00,,,0.91,,2013-05-27 10:42:00,
2013-05-27 05:53:00,60.0,-99.9,-100.00,SE,131,6.0,11.0,-999,0.00,,,0.91,,2013-05-27 10:53:00,
2013-05-27 06:00:00,60.0,-99.9,-100.00,SSE,165,5.0,10.0,-999,0.00,,,0.91,,2013-05-27 11:00:00,
2013-05-27 06:32:00,60.0,-99.9,-100.00,SSE,165,5.0,10.0,-999,0.00,,,0.91,,2013-05-27 11:32:00,
2013-05-27 06:42:00,60.0,-99.9,-100.00,SSE,165,5.0,10.0,-999,0.00,,,0.91,,2013-05-27 11:42:00,
2013-05-27 06:52:00,60.0,-99.9,-100.00,SSE,165,5.0,10.0,-999,0.00,,,0.91,,2013-05-27 11:52:00,
2013-05-27 07:00:00,60.0,-99.9,-100.00,SSE,162,7.0,10.0,-999,0.03,,,0.94,,2013-05-27 12:00:00,
2013-05-27 07:32:00,60.0,-99.9,-100.00,SSE,162,7.0,10.0,-999,0.03,,,0.94,,2013-05-27 12:32:00,
2013-05-27 07:42:00,60.0,-99.9,-100.00,SSE,162,7.0,10.0,-999,0.03,,,0.94,,2013-05-27 12:42:00,
2013-05-27 07:52:00,60.0,-99.9,-100.00,SSE,162,7.0,10.0,-999,0.03,,,0.94,,2013-05-27 12:52:00,
2013-05-27 08:00:00,60.0,-99.9,-100.00,SSE,168,4.0,6.0,-999,0.05,,,0.99,,2013-05-27 13:00:00,
2013-05-27 08:42:00,60.0,-99.9,-100.00,SSE,168,4.0,6.0,-999,0.05,,,0.99,,2013-05-27 13:42:00,
2013-05-27 08:53:00,60.0,-99.9,-100.00,SSE,168,4.0,6.0,-999,0.05,,,0.99,,2013-05-27 13:53:00,
2013-05-27 09:00:00,60.0,-99.9,-100.00,SSW,195,4.0,7.0,-999,0.05,,,1.04,,2013-05-27 14:00:00,
2013-05-27 09:42:00,60.0,-99.9,-100.00,SSW,195,4.0,7.0,-999,0.05,,,1.04,,2013-05-27 14:42:00,
2013-05-27 09:52:00,60.0,-99.9,-100.00,SSW,195,4.0,7.0,-999,0.05,,,1.04,,2013-05-27 14:52:00,
2013-05-27 10:00:00,61.0,-99.9,-100.00,SW,223,6.0,12.0,-999,0.09,,,-99.99,,2013-05-27 15:00:00,
2013-05-27 10:33:00,61.0,-99.9,-100.00,SW,223,6.0,12.0,-999,0.09,,,-99.99,,2013-05-27 15:33:00,
2013-05-27 10:43:00,61.0,-99.9,-100.00,SW,223,6.0,12.0,-999,0.09,,,-99.99,,2013-05-27 15:43:00,
2013-05-27 10:53:00,61.0,-99.9,-100.00,SW,223,6.0,12.0,-999,0.09,,,-99.99,,2013-05-27 15:53:00,
2013-05-27 11:00:00,61.0,-99.9,-100.00,SSE,162,16.0,36.0,-999,0.07,,,1.20,,2013-05-27 16:00:00,
2013-05-27 11:33:00,61.0,-99.9,-100.00,SSE,162,16.0,36.0,-999,0.07,,,1.20,,2013-05-27 16:33:00,
2013-05-27 11:42:00,61.0,-99.9,-100.00,SSE,162,16.0,36.0,-999,0.07,,,1.20,,2013-05-27 16:42:00,
2013-05-27 11:53:00,61.0,-99.9,-100.00,SSE,162,16.0,36.0,-999,0.07,,,1.20,,2013-05-27 16:53:00,
2013-05-27 12:00:00,64.0,-99.9,-100.00,SSE,152,6.0,11.0,-999,0.00,,,1.20,,2013-05-27 17:00:00,
2013-05-27 12:43:00,64.0,-99.9,-100.00,SSE,152,6.0,11.0,-999,0.00,,,1.20,,2013-05-27 17:43:00,
2013-05-27 12:52:00,64.0,-99.9,-100.00,SSE,152,6.0,11.0,-999,0.00,,,1.20,,2013-05-27 17:52:00,
2013-05-27 13:00:00,66.0,-99.9,-100.00,SE,139,8.0,19.0,-999,0.01,,,1.21,,2013-05-27 18:00:00,
2013-05-27 13:42:00,66.0,-99.9,-100.00,SE,139,8.0,19.0,-999,0.01,,,1.21,,2013-05-27 18:42:00,
2013-05-27 13:52:00,66.0,-99.9,-100.00,SE,139,8.0,19.0,-999,0.01,,,1.21,,2013-05-27 18:52:00,
2013-05-27 14:00:00,68.0,-99.9,-100.00,SE,143,6.0,11.0,-999,0.00,,,1.21,,2013-05-27 19:00:00,
2013-05-27 14:32:00,68.0,-99.9,-100.00,SE,143,6.0,11.0,-999,0.00,,,1.21,,2013-05-27 19:32:00,
2013-05-27 14:42:00,68.0,-99.9,-100.00,SE,143,6.0,11.0,-999,0.00,,,1.21,,2013-05-27 19:42:00,
2013-05-27 14:52:00,68.0,-99.9,-100.00,SE,143,6.0,11.0,-999,0.00,,,1.21,,2013-05-27 19:52:00,
2013-05-27 15:00:00,70.0,-99.9,-100.00,North,352,2.0,5.0,-999,0.00,,,1.21,,2013-05-27 20:00:00,
2013-05-27 15:32:00,70.0,-99.9,-100.00,North,352,2.0,5.0,-999,0.00,,,1.21,,2013-05-27 20:32:00,
2013-05-27 15:42:00,70.0,-99.9,-100.00,North,352,2.0,5.0,-999,0.00,,,1.21,,2013-05-27 20:42:00,
2013-05-27 15:53:00,70.0,-99.9,-100.00,North,352,2.0,5.0,-999,0.00,,,1.21,,2013-05-27 20:53:00,
2013-05-27 16:00:00,70.0,-99.9,-100.00,NE,44,2.0,4.0,-999,0.00,,,1.21,,2013-05-27 21:00:00,
2013-05-27 16:33:00,70.0,-99.9,-100.00,NE,44,2.0,4.0,-999,0.00,,,1.21,,2013-05-27 21:33:00,
2013-05-27 16:43:00,70.0,-99.9,-100.00,NE,44,2.0,4.0,-999,0.00,,,1.21,,2013-05-27 21:43:00,
2013-05-27 16:53:00,70.0,-99.9,-100.00,NE,44,2.0,4.0,-999,0.00,,,1.21,,2013-05-27 21:53:00,
2013-05-27 17:00:00,72.0,-99.9,-100.00,North,2,3.0,6.0,-999,0.00,,,1.21,,2013-05-27 22:00:00,
2013-05-27 17:33:00,72.0,-99.9,-100.00,North,2,3.0,6.0,-999,0.00,,,1.21,,2013-05-27 22:33:00,
2013-05-27 17:42:00,72.0,-99.9,-100.00,North,2,3.0,6.0,-999,0.00,,,1.21,,2013-05-27 22:42:00,
2013-05-27 17:53:00,72.0,-99.9,-100.00,North,2,3.0,6.0,-999,0.00,,,1.21,,2013-05-27 22:53:00,
2013-05-27 18:00:00,73.0,-99.9,-100.00,NNE,18,2.0,4.0,-999,0.00,,,1.21,,2013-05-27 23:00:00,
2013-05-27 18:42:00,73.0,-99.9,-100.00,NNE,18,2.0,4.0,-999,0.00,,,1.21,,2013-05-27 23:42:00,
2013-05-27 18:52:00,73.0,-99.9,-100.00,NNE,18,2.0,4.0,-999,0.00,,,1.21,,2013-05-27 23:52:00,
2013-05-27 20:00:00,69.0,-99.9,-100.00,SSE,154,4.0,8.0,-999,0.00,,,0.58,,2013-05-28 01:00:00,
2013-05-27 20:32:00,69.0,-99.9,-100.00,SSE,154,4.0,8.0,-999,0.00,,,0.58,,2013-05-28 01:32:00,
2013-05-27 20:42:00,69.0,-99.9,-100.00,SSE,154,4.0,8.0,-999,0.00,,,0.58,,2013-05-28 01:42:00,
2013-05-27 20:52:00,69.0,-99.9,-100.00,SSE,154,4.0,8.0,-999,0.00,,,0.58,,2013-05-28 01:52:00,
2013-05-27 21:00:00,68.0,-99.9,-100.00,SSE,156,4.0,6.0,-999,0.00,,,0.31,,2013-05-28 02:00:00,
2013-05-27 21:32:00,68.0,-99.9,-100.00,SSE,156,4.0,6.0,-999,0.00,,,0.31,,2013-05-28 02:32:00,
2013-05-27 21:42:00,68.0,-99.9,-100.00,SSE,156,4.0,6.0,-999,0.00,,,0.31,,2013-05-28 02:42:00,
2013-05-27 21:52:00,68.0,-99.9,-100.00,SSE,156,4.0,6.0,-999,0.00,,,0.31,,2013-05-28 02:52:00,
2013-05-27 22:00:00,68.0,-99.9,-100.00,SE,145,4.0,8.0,-999,0.00,,,0.31,,2013-05-28 03:00:00,
2013-05-27 22:33:00,68.0,-99.9,-100.00,SE,145,4.0,8.0,-999,0.00,,,0.31,,2013-05-28 03:33:00,
2013-05-27 22:43:00,68.0,-99.9,-100.00,SE,145,4.0,8.0,-999,0.00,,,0.31,,2013-05-28 03:43:00,
2013-05-27 22:53:00,68.0,-99.9,-100.00,SE,145,4.0,8.0,-999,0.00,,,0.31,,2013-05-28 03:53:00,
2013-05-27 23:00:00,68.0,-99.9,-100.00,SE,140,4.0,6.0,-999,0.00,,,0.31,,2013-05-28 04:00:00,
2013-05-27 23:33:00,68.0,-99.9,-100.00,SE,140,4.0,6.0,-999,0.00,,,0.31,,2013-05-28 04:33:00,
2013-05-27 23:43:00,68.0,-99.9,-100.00,SE,140,4.0,6.0,-999,0.00,,,0.31,,2013-05-28 04:43:00,
2013-05-27 23:53:00,68.0,-99.9,-100.00,SE,140,4.0,6.0,-999,0.00,,,0.31,,2013-05-28 04:53:00,